sensor_id;sensor_type;location;lat;lon;timestamp;P1;durP1;ratioP1;P2;durP2;ratioP2
59756;SDS011;45631;51.962;5.974;2023-03-01T00:01:23;8.57;;;4.03;;
59756;SDS011;45631;51.962;5.974;2023-03-01T00:03:54;7.80;;;3.95;;
59756;SDS011;45631;51.962;5.974;2023-03-01T00:06:23;6.57;;;3.30;;
59756;SDS011;45631;51.962;5.974;2023-03-01T00:08:51;7.90;;;4.00;;
59756;SDS011;45631;51.962;5.974;2023-03-01T00:11:20;8.00;;;4.40;;
59756;SDS011;45631;51.962;5.974;2023-03-01T00:13:51;7.65;;;3.83;;
59756;SDS011;45631;51.962;5.974;2023-03-01T00:16:23;8.95;;;4.22;;
59756;SDS011;45631;51.962;5.974;2023-03-01T00:18:53;8.32;;;4.43;;
59756;SDS011;45631;51.962;5.974;2023-03-01T00:21:22;8.45;;;4.20;;
59756;SDS011;45631;51.962;5.974;2023-03-01T00:23:51;9.10;;;4.43;;
59756;SDS011;45631;51.962;5.974;2023-03-01T00:26:20;8.85;;;4.25;;
59756;SDS011;45631;51.962;5.974;2023-03-01T00:28:49;8.60;;;4.13;;
59756;SDS011;45631;51.962;5.974;2023-03-01T00:31:19;9.43;;;4.05;;
59756;SDS011;45631;51.962;5.974;2023-03-01T00:33:51;7.70;;;3.80;;
59756;SDS011;45631;51.962;5.974;2023-03-01T00:36:20;7.82;;;3.95;;
59756;SDS011;45631;51.962;5.974;2023-03-01T00:38:48;8.23;;;4.07;;
59756;SDS011;45631;51.962;5.974;2023-03-01T00:41:17;7.30;;;3.70;;
59756;SDS011;45631;51.962;5.974;2023-03-01T00:43:46;7.43;;;3.83;;
59756;SDS011;45631;51.962;5.974;2023-03-01T00:46:14;8.45;;;4.10;;
59756;SDS011;45631;51.962;5.974;2023-03-01T00:48:44;7.43;;;3.92;;
59756;SDS011;45631;51.962;5.974;2023-03-01T00:51:14;7.35;;;3.72;;
59756;SDS011;45631;51.962;5.974;2023-03-01T00:53:44;7.87;;;3.90;;
59756;SDS011;45631;51.962;5.974;2023-03-01T00:56:14;10.70;;;4.05;;
59756;SDS011;45631;51.962;5.974;2023-03-01T00:58:42;7.63;;;4.30;;
59756;SDS011;45631;51.962;5.974;2023-03-01T01:01:11;7.68;;;4.22;;
59756;SDS011;45631;51.962;5.974;2023-03-01T01:03:45;8.52;;;4.47;;
59756;SDS011;45631;51.962;5.974;2023-03-01T01:06:17;8.60;;;4.47;;
59756;SDS011;45631;51.962;5.974;2023-03-01T01:08:47;8.40;;;4.20;;
59756;SDS011;45631;51.962;5.974;2023-03-01T01:11:15;11.18;;;4.88;;
59756;SDS011;45631;51.962;5.974;2023-03-01T01:13:44;8.02;;;4.20;;
59756;SDS011;45631;51.962;5.974;2023-03-01T01:16:14;7.47;;;3.83;;
59756;SDS011;45631;51.962;5.974;2023-03-01T01:18:43;8.20;;;3.83;;
59756;SDS011;45631;51.962;5.974;2023-03-01T01:21:12;7.43;;;3.67;;
59756;SDS011;45631;51.962;5.974;2023-03-01T01:23:43;8.50;;;3.95;;
59756;SDS011;45631;51.962;5.974;2023-03-01T01:26:13;8.73;;;4.72;;
59756;SDS011;45631;51.962;5.974;2023-03-01T01:28:42;7.90;;;4.00;;
59756;SDS011;45631;51.962;5.974;2023-03-01T01:31:11;8.20;;;4.07;;
59756;SDS011;45631;51.962;5.974;2023-03-01T01:33:39;8.23;;;4.63;;
59756;SDS011;45631;51.962;5.974;2023-03-01T01:36:07;8.45;;;4.07;;
59756;SDS011;45631;51.962;5.974;2023-03-01T01:38:37;9.00;;;4.20;;
59756;SDS011;45631;51.962;5.974;2023-03-01T01:41:07;8.43;;;4.18;;
59756;SDS011;45631;51.962;5.974;2023-03-01T01:43:36;7.53;;;4.03;;
59756;SDS011;45631;51.962;5.974;2023-03-01T01:46:06;9.75;;;4.53;;
59756;SDS011;45631;51.962;5.974;2023-03-01T01:48:44;8.27;;;4.07;;
59756;SDS011;45631;51.962;5.974;2023-03-01T01:51:17;9.05;;;4.82;;
59756;SDS011;45631;51.962;5.974;2023-03-01T01:53:53;8.55;;;4.93;;
59756;SDS011;45631;51.962;5.974;2023-03-01T01:56:28;8.02;;;4.40;;
59756;SDS011;45631;51.962;5.974;2023-03-01T01:58:58;8.00;;;4.43;;
59756;SDS011;45631;51.962;5.974;2023-03-01T02:01:26;8.27;;;4.35;;
59756;SDS011;45631;51.962;5.974;2023-03-01T02:03:54;12.93;;;5.43;;
59756;SDS011;45631;51.962;5.974;2023-03-01T02:06:25;8.18;;;5.03;;
59756;SDS011;45631;51.962;5.974;2023-03-01T02:08:57;8.60;;;4.57;;
59756;SDS011;45631;51.962;5.974;2023-03-01T02:11:31;11.15;;;4.82;;
59756;SDS011;45631;51.962;5.974;2023-03-01T02:14:00;7.70;;;4.50;;
59756;SDS011;45631;51.962;5.974;2023-03-01T02:16:28;12.20;;;5.25;;
59756;SDS011;45631;51.962;5.974;2023-03-01T02:18:58;9.57;;;4.78;;
59756;SDS011;45631;51.962;5.974;2023-03-01T02:21:30;10.00;;;5.10;;
59756;SDS011;45631;51.962;5.974;2023-03-01T02:24:10;10.07;;;5.97;;
59756;SDS011;45631;51.962;5.974;2023-03-01T02:26:48;9.50;;;5.18;;
59756;SDS011;45631;51.962;5.974;2023-03-01T02:29:20;10.70;;;5.53;;
59756;SDS011;45631;51.962;5.974;2023-03-01T02:31:49;12.35;;;6.43;;
59756;SDS011;45631;51.962;5.974;2023-03-01T02:34:19;12.05;;;5.65;;
59756;SDS011;45631;51.962;5.974;2023-03-01T02:36:52;10.82;;;5.97;;
59756;SDS011;45631;51.962;5.974;2023-03-01T02:39:24;10.82;;;6.13;;
59756;SDS011;45631;51.962;5.974;2023-03-01T02:41:55;11.43;;;5.25;;
59756;SDS011;45631;51.962;5.974;2023-03-01T02:44:26;11.43;;;6.05;;
59756;SDS011;45631;51.962;5.974;2023-03-01T02:46:55;11.98;;;5.95;;
59756;SDS011;45631;51.962;5.974;2023-03-01T02:49:25;11.55;;;6.18;;
59756;SDS011;45631;51.962;5.974;2023-03-01T02:52:07;11.30;;;5.80;;
59756;SDS011;45631;51.962;5.974;2023-03-01T02:54:46;10.55;;;6.20;;
59756;SDS011;45631;51.962;5.974;2023-03-01T02:57:17;11.45;;;6.38;;
59756;SDS011;45631;51.962;5.974;2023-03-01T02:59:49;12.20;;;5.63;;
59756;SDS011;45631;51.962;5.974;2023-03-01T03:02:19;12.07;;;6.38;;
59756;SDS011;45631;51.962;5.974;2023-03-01T03:05:06;11.32;;;5.80;;
59756;SDS011;45631;51.962;5.974;2023-03-01T03:07:38;13.52;;;6.47;;
59756;SDS011;45631;51.962;5.974;2023-03-01T03:10:08;13.63;;;6.43;;
59756;SDS011;45631;51.962;5.974;2023-03-01T03:12:38;11.10;;;5.68;;
59756;SDS011;45631;51.962;5.974;2023-03-01T03:15:10;12.13;;;6.45;;
59756;SDS011;45631;51.962;5.974;2023-03-01T03:17:39;10.23;;;5.88;;
59756;SDS011;45631;51.962;5.974;2023-03-01T03:22:45;10.25;;;5.88;;
59756;SDS011;45631;51.962;5.974;2023-03-01T03:25:14;11.73;;;6.03;;
59756;SDS011;45631;51.962;5.974;2023-03-01T03:27:43;10.45;;;5.40;;
59756;SDS011;45631;51.962;5.974;2023-03-01T03:30:15;11.25;;;6.07;;
59756;SDS011;45631;51.962;5.974;2023-03-01T03:32:45;11.73;;;6.18;;
59756;SDS011;45631;51.962;5.974;2023-03-01T03:35:19;10.43;;;5.45;;
59756;SDS011;45631;51.962;5.974;2023-03-01T03:37:48;14.13;;;6.28;;
59756;SDS011;45631;51.962;5.974;2023-03-01T03:40:33;10.25;;;5.72;;
59756;SDS011;45631;51.962;5.974;2023-03-01T03:43:02;10.45;;;5.55;;
59756;SDS011;45631;51.962;5.974;2023-03-01T03:45:33;10.88;;;5.95;;
59756;SDS011;45631;51.962;5.974;2023-03-01T03:48:02;11.52;;;5.57;;
59756;SDS011;45631;51.962;5.974;2023-03-01T03:50:32;10.15;;;5.70;;
59756;SDS011;45631;51.962;5.974;2023-03-01T03:53:01;11.05;;;5.38;;
59756;SDS011;45631;51.962;5.974;2023-03-01T03:55:31;11.35;;;5.80;;
59756;SDS011;45631;51.962;5.974;2023-03-01T03:58:00;11.07;;;5.45;;
59756;SDS011;45631;51.962;5.974;2023-03-01T04:00:35;12.27;;;5.60;;
59756;SDS011;45631;51.962;5.974;2023-03-01T04:03:05;10.05;;;5.72;;
59756;SDS011;45631;51.962;5.974;2023-03-01T04:05:36;9.18;;;5.45;;
59756;SDS011;45631;51.962;5.974;2023-03-01T04:08:05;9.55;;;5.80;;
59756;SDS011;45631;51.962;5.974;2023-03-01T04:10:35;9.77;;;5.35;;
59756;SDS011;45631;51.962;5.974;2023-03-01T04:13:05;9.70;;;5.43;;
59756;SDS011;45631;51.962;5.974;2023-03-01T04:15:35;10.50;;;5.43;;
59756;SDS011;45631;51.962;5.974;2023-03-01T04:18:04;10.93;;;4.95;;
59756;SDS011;45631;51.962;5.974;2023-03-01T04:20:35;14.05;;;5.55;;
59756;SDS011;45631;51.962;5.974;2023-03-01T04:23:04;11.93;;;5.55;;
59756;SDS011;45631;51.962;5.974;2023-03-01T04:25:40;8.98;;;4.88;;
59756;SDS011;45631;51.962;5.974;2023-03-01T04:28:10;9.50;;;5.20;;
59756;SDS011;45631;51.962;5.974;2023-03-01T04:30:40;9.77;;;5.10;;
59756;SDS011;45631;51.962;5.974;2023-03-01T04:33:09;14.07;;;5.20;;
59756;SDS011;45631;51.962;5.974;2023-03-01T04:35:38;10.80;;;4.88;;
59756;SDS011;45631;51.962;5.974;2023-03-01T04:38:07;9.50;;;4.82;;
59756;SDS011;45631;51.962;5.974;2023-03-01T04:40:35;9.27;;;5.10;;
59756;SDS011;45631;51.962;5.974;2023-03-01T04:43:04;9.98;;;5.05;;
59756;SDS011;45631;51.962;5.974;2023-03-01T04:45:32;9.20;;;5.47;;
59756;SDS011;45631;51.962;5.974;2023-03-01T04:48:03;8.70;;;4.78;;
59756;SDS011;45631;51.962;5.974;2023-03-01T04:50:32;9.88;;;5.15;;
59756;SDS011;45631;51.962;5.974;2023-03-01T04:53:00;10.80;;;5.25;;
59756;SDS011;45631;51.962;5.974;2023-03-01T04:55:29;11.40;;;5.63;;
59756;SDS011;45631;51.962;5.974;2023-03-01T04:57:58;10.18;;;4.65;;
59756;SDS011;45631;51.962;5.974;2023-03-01T05:00:26;12.55;;;5.57;;
59756;SDS011;45631;51.962;5.974;2023-03-01T05:02:55;8.07;;;4.80;;
59756;SDS011;45631;51.962;5.974;2023-03-01T05:05:28;11.68;;;5.22;;
59756;SDS011;45631;51.962;5.974;2023-03-01T05:07:59;12.35;;;5.75;;
59756;SDS011;45631;51.962;5.974;2023-03-01T05:10:28;10.85;;;4.95;;
59756;SDS011;45631;51.962;5.974;2023-03-01T05:12:57;9.88;;;5.00;;
59756;SDS011;45631;51.962;5.974;2023-03-01T05:15:27;9.63;;;4.68;;
59756;SDS011;45631;51.962;5.974;2023-03-01T05:17:58;9.45;;;4.85;;
59756;SDS011;45631;51.962;5.974;2023-03-01T05:20:29;9.40;;;4.75;;
59756;SDS011;45631;51.962;5.974;2023-03-01T05:22:58;9.63;;;4.95;;
59756;SDS011;45631;51.962;5.974;2023-03-01T05:25:33;8.25;;;4.25;;
59756;SDS011;45631;51.962;5.974;2023-03-01T05:28:07;9.38;;;4.38;;
59756;SDS011;45631;51.962;5.974;2023-03-01T05:30:39;8.75;;;4.55;;
59756;SDS011;45631;51.962;5.974;2023-03-01T05:33:08;8.93;;;5.38;;
59756;SDS011;45631;51.962;5.974;2023-03-01T05:35:41;10.80;;;5.35;;
59756;SDS011;45631;51.962;5.974;2023-03-01T05:38:10;10.00;;;4.72;;
59756;SDS011;45631;51.962;5.974;2023-03-01T05:40:40;8.48;;;4.97;;
59756;SDS011;45631;51.962;5.974;2023-03-01T05:43:10;9.75;;;4.97;;
59756;SDS011;45631;51.962;5.974;2023-03-01T05:45:38;10.02;;;4.82;;
59756;SDS011;45631;51.962;5.974;2023-03-01T05:48:07;9.85;;;4.57;;
59756;SDS011;45631;51.962;5.974;2023-03-01T05:50:38;9.68;;;5.22;;
59756;SDS011;45631;51.962;5.974;2023-03-01T05:53:11;9.15;;;4.72;;
59756;SDS011;45631;51.962;5.974;2023-03-01T05:55:41;12.73;;;4.97;;
59756;SDS011;45631;51.962;5.974;2023-03-01T05:58:11;12.10;;;5.43;;
59756;SDS011;45631;51.962;5.974;2023-03-01T06:00:40;8.00;;;4.55;;
59756;SDS011;45631;51.962;5.974;2023-03-01T06:03:10;7.55;;;4.35;;
59756;SDS011;45631;51.962;5.974;2023-03-01T06:05:40;8.65;;;4.82;;
59756;SDS011;45631;51.962;5.974;2023-03-01T06:08:12;10.50;;;5.47;;
59756;SDS011;45631;51.962;5.974;2023-03-01T06:10:41;9.43;;;4.65;;
59756;SDS011;45631;51.962;5.974;2023-03-01T06:13:09;8.55;;;4.63;;
59756;SDS011;45631;51.962;5.974;2023-03-01T06:15:37;8.70;;;4.60;;
59756;SDS011;45631;51.962;5.974;2023-03-01T06:18:05;8.90;;;4.70;;
59756;SDS011;45631;51.962;5.974;2023-03-01T06:20:33;11.38;;;4.82;;
59756;SDS011;45631;51.962;5.974;2023-03-01T06:23:01;10.52;;;5.22;;
59756;SDS011;45631;51.962;5.974;2023-03-01T06:25:32;9.18;;;4.93;;
59756;SDS011;45631;51.962;5.974;2023-03-01T06:28:00;10.85;;;5.78;;
59756;SDS011;45631;51.962;5.974;2023-03-01T06:30:31;11.73;;;5.40;;
59756;SDS011;45631;51.962;5.974;2023-03-01T06:32:59;9.80;;;5.20;;
59756;SDS011;45631;51.962;5.974;2023-03-01T06:35:29;10.63;;;4.57;;
59756;SDS011;45631;51.962;5.974;2023-03-01T06:37:58;11.48;;;5.35;;
59756;SDS011;45631;51.962;5.974;2023-03-01T06:40:27;10.45;;;5.22;;
59756;SDS011;45631;51.962;5.974;2023-03-01T06:43:01;10.18;;;5.20;;
59756;SDS011;45631;51.962;5.974;2023-03-01T06:45:29;11.00;;;5.20;;
59756;SDS011;45631;51.962;5.974;2023-03-01T06:48:04;9.68;;;4.95;;
59756;SDS011;45631;51.962;5.974;2023-03-01T06:50:33;8.38;;;4.47;;
59756;SDS011;45631;51.962;5.974;2023-03-01T06:53:02;13.73;;;4.60;;
59756;SDS011;45631;51.962;5.974;2023-03-01T06:55:31;10.93;;;5.00;;
59756;SDS011;45631;51.962;5.974;2023-03-01T06:58:03;10.40;;;5.28;;
59756;SDS011;45631;51.962;5.974;2023-03-01T07:00:31;10.98;;;5.35;;
59756;SDS011;45631;51.962;5.974;2023-03-01T07:03:00;13.63;;;5.75;;
59756;SDS011;45631;51.962;5.974;2023-03-01T07:05:30;10.90;;;6.20;;
59756;SDS011;45631;51.962;5.974;2023-03-01T07:08:00;13.02;;;5.75;;
59756;SDS011;45631;51.962;5.974;2023-03-01T07:10:31;12.80;;;5.72;;
59756;SDS011;45631;51.962;5.974;2023-03-01T07:12:59;13.05;;;6.20;;
59756;SDS011;45631;51.962;5.974;2023-03-01T07:15:29;14.48;;;6.15;;
59756;SDS011;45631;51.962;5.974;2023-03-01T07:17:57;13.27;;;6.30;;
59756;SDS011;45631;51.962;5.974;2023-03-01T07:20:25;16.23;;;5.97;;
59756;SDS011;45631;51.962;5.974;2023-03-01T07:22:53;10.10;;;6.03;;
59756;SDS011;45631;51.962;5.974;2023-03-01T07:25:22;11.82;;;5.82;;
59756;SDS011;45631;51.962;5.974;2023-03-01T07:27:51;10.60;;;6.05;;
59756;SDS011;45631;51.962;5.974;2023-03-01T07:30:19;11.60;;;6.30;;
59756;SDS011;45631;51.962;5.974;2023-03-01T07:32:49;14.98;;;5.68;;
59756;SDS011;45631;51.962;5.974;2023-03-01T07:35:21;11.52;;;6.28;;
59756;SDS011;45631;51.962;5.974;2023-03-01T07:37:49;13.50;;;6.55;;
59756;SDS011;45631;51.962;5.974;2023-03-01T07:40:17;13.13;;;6.60;;
59756;SDS011;45631;51.962;5.974;2023-03-01T07:42:46;11.85;;;6.15;;
59756;SDS011;45631;51.962;5.974;2023-03-01T07:45:14;13.25;;;6.60;;
59756;SDS011;45631;51.962;5.974;2023-03-01T07:47:42;12.93;;;6.72;;
59756;SDS011;45631;51.962;5.974;2023-03-01T07:50:11;10.32;;;6.38;;
59756;SDS011;45631;51.962;5.974;2023-03-01T07:52:39;11.73;;;6.57;;
59756;SDS011;45631;51.962;5.974;2023-03-01T07:55:08;12.27;;;6.75;;
59756;SDS011;45631;51.962;5.974;2023-03-01T07:57:36;12.35;;;7.10;;
59756;SDS011;45631;51.962;5.974;2023-03-01T08:00:05;11.18;;;5.88;;
59756;SDS011;45631;51.962;5.974;2023-03-01T08:02:33;13.05;;;6.28;;
59756;SDS011;45631;51.962;5.974;2023-03-01T08:05:02;11.52;;;6.05;;
59756;SDS011;45631;51.962;5.974;2023-03-01T08:07:32;11.45;;;5.47;;
59756;SDS011;45631;51.962;5.974;2023-03-01T08:10:00;13.30;;;6.38;;
59756;SDS011;45631;51.962;5.974;2023-03-01T08:12:28;9.73;;;5.50;;
59756;SDS011;45631;51.962;5.974;2023-03-01T08:14:56;13.52;;;5.82;;
59756;SDS011;45631;51.962;5.974;2023-03-01T08:17:25;10.52;;;5.38;;
59756;SDS011;45631;51.962;5.974;2023-03-01T08:19:53;10.55;;;5.70;;
59756;SDS011;45631;51.962;5.974;2023-03-01T08:22:21;10.88;;;6.03;;
59756;SDS011;45631;51.962;5.974;2023-03-01T08:24:50;11.05;;;5.53;;
59756;SDS011;45631;51.962;5.974;2023-03-01T08:27:18;12.27;;;6.15;;
59756;SDS011;45631;51.962;5.974;2023-03-01T08:29:46;11.23;;;6.07;;
59756;SDS011;45631;51.962;5.974;2023-03-01T08:32:14;11.30;;;6.25;;
59756;SDS011;45631;51.962;5.974;2023-03-01T08:34:45;10.52;;;5.95;;
59756;SDS011;45631;51.962;5.974;2023-03-01T08:37:14;14.52;;;5.95;;
59756;SDS011;45631;51.962;5.974;2023-03-01T08:39:42;11.05;;;5.63;;
59756;SDS011;45631;51.962;5.974;2023-03-01T08:42:14;11.95;;;5.82;;
59756;SDS011;45631;51.962;5.974;2023-03-01T08:44:42;10.70;;;5.55;;
59756;SDS011;45631;51.962;5.974;2023-03-01T08:47:12;10.30;;;5.68;;
59756;SDS011;45631;51.962;5.974;2023-03-01T08:49:41;10.18;;;5.85;;
59756;SDS011;45631;51.962;5.974;2023-03-01T08:52:09;10.50;;;5.68;;
59756;SDS011;45631;51.962;5.974;2023-03-01T08:54:37;9.80;;;5.07;;
59756;SDS011;45631;51.962;5.974;2023-03-01T08:57:05;10.73;;;5.57;;
59756;SDS011;45631;51.962;5.974;2023-03-01T08:59:36;10.82;;;5.00;;
59756;SDS011;45631;51.962;5.974;2023-03-01T09:02:05;10.23;;;5.55;;
59756;SDS011;45631;51.962;5.974;2023-03-01T09:04:38;8.52;;;4.78;;
59756;SDS011;45631;51.962;5.974;2023-03-01T09:07:06;9.35;;;5.18;;
59756;SDS011;45631;51.962;5.974;2023-03-01T09:09:34;9.27;;;4.82;;
59756;SDS011;45631;51.962;5.974;2023-03-01T09:12:03;10.02;;;5.22;;
59756;SDS011;45631;51.962;5.974;2023-03-01T09:14:31;12.50;;;5.00;;
59756;SDS011;45631;51.962;5.974;2023-03-01T09:17:01;10.00;;;4.78;;
59756;SDS011;45631;51.962;5.974;2023-03-01T09:19:29;8.50;;;4.95;;
59756;SDS011;45631;51.962;5.974;2023-03-01T09:21:58;9.80;;;4.90;;
59756;SDS011;45631;51.962;5.974;2023-03-01T09:24:26;9.80;;;4.93;;
59756;SDS011;45631;51.962;5.974;2023-03-01T09:26:54;10.88;;;5.28;;
59756;SDS011;45631;51.962;5.974;2023-03-01T09:29:23;9.57;;;4.93;;
59756;SDS011;45631;51.962;5.974;2023-03-01T09:31:52;10.20;;;5.20;;
59756;SDS011;45631;51.962;5.974;2023-03-01T09:34:23;10.57;;;5.07;;
59756;SDS011;45631;51.962;5.974;2023-03-01T09:36:51;9.18;;;5.20;;
59756;SDS011;45631;51.962;5.974;2023-03-01T09:39:22;10.30;;;5.28;;
59756;SDS011;45631;51.962;5.974;2023-03-01T09:41:53;8.40;;;4.78;;
59756;SDS011;45631;51.962;5.974;2023-03-01T09:44:27;10.85;;;4.75;;
59756;SDS011;45631;51.962;5.974;2023-03-01T09:47:01;9.45;;;4.95;;
59756;SDS011;45631;51.962;5.974;2023-03-01T09:49:32;9.93;;;5.07;;
59756;SDS011;45631;51.962;5.974;2023-03-01T09:52:03;11.35;;;5.05;;
59756;SDS011;45631;51.962;5.974;2023-03-01T09:54:40;7.93;;;5.10;;
59756;SDS011;45631;51.962;5.974;2023-03-01T09:57:15;9.10;;;5.28;;
59756;SDS011;45631;51.962;5.974;2023-03-01T09:59:53;10.02;;;5.72;;
59756;SDS011;45631;51.962;5.974;2023-03-01T10:02:38;10.18;;;5.60;;
59756;SDS011;45631;51.962;5.974;2023-03-01T10:05:14;11.15;;;5.97;;
59756;SDS011;45631;51.962;5.974;2023-03-01T10:07:54;10.40;;;6.05;;
59756;SDS011;45631;51.962;5.974;2023-03-01T10:10:32;11.23;;;5.97;;
59756;SDS011;45631;51.962;5.974;2023-03-01T10:13:03;12.38;;;5.88;;
59756;SDS011;45631;51.962;5.974;2023-03-01T10:15:43;13.38;;;5.65;;
59756;SDS011;45631;51.962;5.974;2023-03-01T10:18:16;10.73;;;5.63;;
59756;SDS011;45631;51.962;5.974;2023-03-01T10:20:51;10.13;;;5.38;;
59756;SDS011;45631;51.962;5.974;2023-03-01T10:23:22;9.80;;;5.70;;
59756;SDS011;45631;51.962;5.974;2023-03-01T10:26:03;8.68;;;5.25;;
59756;SDS011;45631;51.962;5.974;2023-03-01T10:28:42;9.73;;;5.38;;
59756;SDS011;45631;51.962;5.974;2023-03-01T10:31:18;9.70;;;5.50;;
59756;SDS011;45631;51.962;5.974;2023-03-01T10:33:55;10.02;;;5.22;;
59756;SDS011;45631;51.962;5.974;2023-03-01T10:36:26;9.38;;;5.38;;
59756;SDS011;45631;51.962;5.974;2023-03-01T10:38:56;8.95;;;4.90;;
59756;SDS011;45631;51.962;5.974;2023-03-01T10:41:25;10.13;;;5.40;;
59756;SDS011;45631;51.962;5.974;2023-03-01T10:43:56;8.73;;;5.35;;
59756;SDS011;45631;51.962;5.974;2023-03-01T10:46:27;8.07;;;4.93;;
59756;SDS011;45631;51.962;5.974;2023-03-01T10:51:46;9.63;;;5.20;;
59756;SDS011;45631;51.962;5.974;2023-03-01T10:54:17;10.65;;;4.95;;
59756;SDS011;45631;51.962;5.974;2023-03-01T10:56:48;10.70;;;5.35;;
59756;SDS011;45631;51.962;5.974;2023-03-01T10:59:21;9.95;;;5.40;;
59756;SDS011;45631;51.962;5.974;2023-03-01T11:04:56;10.50;;;5.18;;
59756;SDS011;45631;51.962;5.974;2023-03-01T11:07:27;9.43;;;5.22;;
59756;SDS011;45631;51.962;5.974;2023-03-01T11:09:56;10.85;;;5.60;;
59756;SDS011;45631;51.962;5.974;2023-03-01T11:12:24;9.68;;;4.55;;
59756;SDS011;45631;51.962;5.974;2023-03-01T11:14:55;9.18;;;4.90;;
59756;SDS011;45631;51.962;5.974;2023-03-01T11:17:24;7.75;;;4.43;;
59756;SDS011;45631;51.962;5.974;2023-03-01T11:20:05;10.13;;;4.45;;
59756;SDS011;45631;51.962;5.974;2023-03-01T11:22:47;8.45;;;4.35;;
59756;SDS011;45631;51.962;5.974;2023-03-01T11:25:17;9.32;;;4.95;;
59756;SDS011;45631;51.962;5.974;2023-03-01T11:27:50;8.90;;;4.70;;
59756;SDS011;45631;51.962;5.974;2023-03-01T11:30:21;8.52;;;5.13;;
59756;SDS011;45631;51.962;5.974;2023-03-01T11:33:01;9.63;;;4.68;;
59756;SDS011;45631;51.962;5.974;2023-03-01T11:35:36;9.65;;;4.95;;
59756;SDS011;45631;51.962;5.974;2023-03-01T11:38:16;8.50;;;4.78;;
59756;SDS011;45631;51.962;5.974;2023-03-01T11:40:50;8.38;;;4.53;;
59756;SDS011;45631;51.962;5.974;2023-03-01T11:43:29;9.48;;;4.80;;
59756;SDS011;45631;51.962;5.974;2023-03-01T11:52:02;9.68;;;4.88;;
59756;SDS011;45631;51.962;5.974;2023-03-01T11:54:46;7.85;;;4.35;;
59756;SDS011;45631;51.962;5.974;2023-03-01T11:57:30;9.35;;;5.10;;
59756;SDS011;45631;51.962;5.974;2023-03-01T12:00:14;9.40;;;4.45;;
59756;SDS011;45631;51.962;5.974;2023-03-01T12:08:58;8.73;;;4.45;;
59756;SDS011;45631;51.962;5.974;2023-03-01T12:11:39;8.82;;;4.68;;
59756;SDS011;45631;51.962;5.974;2023-03-01T12:17:28;8.70;;;4.60;;
59756;SDS011;45631;51.962;5.974;2023-03-01T12:20:18;7.68;;;4.28;;
59756;SDS011;45631;51.962;5.974;2023-03-01T12:22:56;9.23;;;4.75;;
59756;SDS011;45631;51.962;5.974;2023-03-01T12:25:46;11.18;;;4.40;;
59756;SDS011;45631;51.962;5.974;2023-03-01T12:31:30;7.10;;;4.20;;
59756;SDS011;45631;51.962;5.974;2023-03-01T12:34:14;9.18;;;4.85;;
59756;SDS011;45631;51.962;5.974;2023-03-01T12:37:05;7.50;;;3.97;;
59756;SDS011;45631;51.962;5.974;2023-03-01T12:39:47;7.85;;;4.30;;
59756;SDS011;45631;51.962;5.974;2023-03-01T12:42:28;10.20;;;4.20;;
59756;SDS011;45631;51.962;5.974;2023-03-01T12:45:21;7.38;;;3.97;;
59756;SDS011;45631;51.962;5.974;2023-03-01T12:48:05;8.63;;;4.38;;
59756;SDS011;45631;51.962;5.974;2023-03-01T12:50:43;9.40;;;4.30;;
59756;SDS011;45631;51.962;5.974;2023-03-01T12:53:22;7.88;;;4.10;;
59756;SDS011;45631;51.962;5.974;2023-03-01T12:55:52;8.32;;;4.07;;
59756;SDS011;45631;51.962;5.974;2023-03-01T12:58:24;7.55;;;4.20;;
59756;SDS011;45631;51.962;5.974;2023-03-01T13:01:25;7.25;;;4.00;;
59756;SDS011;45631;51.962;5.974;2023-03-01T13:04:07;9.73;;;4.47;;
59756;SDS011;45631;51.962;5.974;2023-03-01T13:06:44;10.02;;;4.40;;
59756;SDS011;45631;51.962;5.974;2023-03-01T13:09:23;10.02;;;4.50;;
59756;SDS011;45631;51.962;5.974;2023-03-01T13:11:59;8.25;;;4.38;;
59756;SDS011;45631;51.962;5.974;2023-03-01T13:14:37;9.25;;;4.93;;
59756;SDS011;45631;51.962;5.974;2023-03-01T13:17:31;8.18;;;4.15;;
59756;SDS011;45631;51.962;5.974;2023-03-01T13:20:10;8.25;;;4.40;;
59756;SDS011;45631;51.962;5.974;2023-03-01T13:22:41;8.50;;;4.38;;
59756;SDS011;45631;51.962;5.974;2023-03-01T13:25:20;7.57;;;4.05;;
59756;SDS011;45631;51.962;5.974;2023-03-01T13:31:03;7.60;;;4.32;;
59756;SDS011;45631;51.962;5.974;2023-03-01T13:33:37;10.10;;;4.10;;
59756;SDS011;45631;51.962;5.974;2023-03-01T13:36:11;7.97;;;4.07;;
59756;SDS011;45631;51.962;5.974;2023-03-01T13:39:03;8.40;;;4.22;;
59756;SDS011;45631;51.962;5.974;2023-03-01T13:41:48;7.78;;;4.18;;
59756;SDS011;45631;51.962;5.974;2023-03-01T13:44:21;9.38;;;4.32;;
59756;SDS011;45631;51.962;5.974;2023-03-01T13:46:55;8.38;;;4.32;;
59756;SDS011;45631;51.962;5.974;2023-03-01T13:49:29;8.10;;;4.35;;
59756;SDS011;45631;51.962;5.974;2023-03-01T13:55:14;7.97;;;4.22;;
59756;SDS011;45631;51.962;5.974;2023-03-01T13:57:46;8.02;;;4.53;;
59756;SDS011;45631;51.962;5.974;2023-03-01T14:00:26;7.95;;;4.38;;
59756;SDS011;45631;51.962;5.974;2023-03-01T14:03:03;8.75;;;4.40;;
59756;SDS011;45631;51.962;5.974;2023-03-01T14:05:38;8.68;;;4.32;;
59756;SDS011;45631;51.962;5.974;2023-03-01T14:08:18;11.63;;;4.90;;
59756;SDS011;45631;51.962;5.974;2023-03-01T14:10:54;9.18;;;4.28;;
59756;SDS011;45631;51.962;5.974;2023-03-01T14:13:42;8.95;;;4.38;;
59756;SDS011;45631;51.962;5.974;2023-03-01T14:16:25;8.20;;;4.50;;
59756;SDS011;45631;51.962;5.974;2023-03-01T14:19:07;9.38;;;4.45;;
59756;SDS011;45631;51.962;5.974;2023-03-01T14:22:04;7.53;;;4.25;;
59756;SDS011;45631;51.962;5.974;2023-03-01T14:24:54;7.53;;;3.83;;
59756;SDS011;45631;51.962;5.974;2023-03-01T14:27:25;7.47;;;4.10;;
59756;SDS011;45631;51.962;5.974;2023-03-01T14:29:56;8.07;;;4.22;;
59756;SDS011;45631;51.962;5.974;2023-03-01T14:32:27;8.40;;;4.43;;
59756;SDS011;45631;51.962;5.974;2023-03-01T14:34:56;9.25;;;4.70;;
59756;SDS011;45631;51.962;5.974;2023-03-01T14:37:28;7.75;;;4.35;;
59756;SDS011;45631;51.962;5.974;2023-03-01T14:39:58;8.98;;;4.70;;
59756;SDS011;45631;51.962;5.974;2023-03-01T14:42:29;8.35;;;4.47;;
59756;SDS011;45631;51.962;5.974;2023-03-01T14:45:03;8.27;;;4.10;;
59756;SDS011;45631;51.962;5.974;2023-03-01T14:47:35;9.95;;;4.40;;
59756;SDS011;45631;51.962;5.974;2023-03-01T14:50:05;8.40;;;4.30;;
59756;SDS011;45631;51.962;5.974;2023-03-01T14:52:39;9.50;;;4.78;;
59756;SDS011;45631;51.962;5.974;2023-03-01T14:55:13;8.70;;;4.45;;
59756;SDS011;45631;51.962;5.974;2023-03-01T14:57:45;8.77;;;4.20;;
59756;SDS011;45631;51.962;5.974;2023-03-01T15:00:20;9.40;;;5.00;;
59756;SDS011;45631;51.962;5.974;2023-03-01T15:02:50;9.10;;;4.45;;
59756;SDS011;45631;51.962;5.974;2023-03-01T15:05:27;9.27;;;4.63;;
59756;SDS011;45631;51.962;5.974;2023-03-01T15:08:00;8.07;;;4.40;;
59756;SDS011;45631;51.962;5.974;2023-03-01T15:10:30;8.25;;;4.25;;
59756;SDS011;45631;51.962;5.974;2023-03-01T15:13:09;7.35;;;3.45;;
59756;SDS011;45631;51.962;5.974;2023-03-01T15:15:38;8.27;;;4.20;;
59756;SDS011;45631;51.962;5.974;2023-03-01T15:18:13;7.70;;;4.10;;
59756;SDS011;45631;51.962;5.974;2023-03-01T15:20:44;7.47;;;4.05;;
59756;SDS011;45631;51.962;5.974;2023-03-01T15:23:19;9.05;;;3.90;;
59756;SDS011;45631;51.962;5.974;2023-03-01T15:25:50;8.32;;;4.32;;
59756;SDS011;45631;51.962;5.974;2023-03-01T15:28:24;8.27;;;4.18;;
59756;SDS011;45631;51.962;5.974;2023-03-01T15:30:55;8.10;;;3.35;;
59756;SDS011;45631;51.962;5.974;2023-03-01T15:33:31;6.85;;;3.67;;
59756;SDS011;45631;51.962;5.974;2023-03-01T15:36:03;6.93;;;3.55;;
59756;SDS011;45631;51.962;5.974;2023-03-01T15:38:54;8.02;;;3.88;;
59756;SDS011;45631;51.962;5.974;2023-03-01T15:41:24;8.65;;;3.88;;
59756;SDS011;45631;51.962;5.974;2023-03-01T15:43:54;7.97;;;3.85;;
59756;SDS011;45631;51.962;5.974;2023-03-01T15:46:24;8.15;;;3.50;;